Terminal Aerodrome Forecast
Issued by NWS Charleston, WV

Current Version | Previous Version | Graphics & Text | Print | Product List | Glossary On
Versions: 1 2 3 4 5 6 7 8 9 10 11 12 13 14 15 16 17 18 19 20 21 22
781
FTUS41 KRLX 090201 AAA
TAFPKB
TAF AMD
KPKB 090201Z 0902/0924 25007KT 3SM -SN OVC025
      TEMPO 0902/0903 1SM -SN BKN003 OVC020
     FM090300 22007KT 2SM -SN BR OVC015
     FM090400 23007KT 3SM -SHSN OVC025
     FM090800 22010G18KT 1SM -SN BR BKN008 OVC015
     FM091500 25010G17KT 2SM -SN BKN008 OVC015
     FM092200 26009KT 3SM -SHSN OVC020=

USA.gov is the U.S. government's official web portal to all federal, state and local government web resources and services.